createdAt,value
2023-01-13T00:00:27.444Z,94770.47
2023-01-13T00:02:55.278Z,94770.00
2023-01-13T00:05:25.769Z,94765.03
2023-01-13T00:07:53.519Z,94765.03
2023-01-13T00:10:21.245Z,94763.16
2023-01-13T00:12:48.999Z,94767.75
2023-01-13T00:15:16.733Z,94752.31
2023-01-13T00:17:44.461Z,94752.94
2023-01-13T00:20:12.884Z,94747.88
2023-01-13T00:22:41.969Z,94746.22
2023-01-13T00:25:10.452Z,94738.00
2023-01-13T00:27:38.187Z,94739.41
2023-01-13T00:30:09.136Z,94734.81
2023-01-13T00:32:36.825Z,94735.41
2023-01-13T00:35:04.965Z,94743.75
2023-01-13T00:37:32.670Z,94741.06
2023-01-13T00:40:01.761Z,94732.94
2023-01-13T00:42:47.011Z,94730.22
2023-01-13T00:45:14.779Z,94737.66
2023-01-13T00:47:42.492Z,94726.81
2023-01-13T00:50:11.821Z,94724.13
2023-01-13T00:52:41.906Z,94731.53
2023-01-13T00:55:11.496Z,94722.59
2023-01-13T00:57:40.203Z,94722.97
2023-01-13T01:00:09.435Z,94724.94
2023-01-13T01:02:37.254Z,94722.00
2023-01-13T01:05:05.497Z,94724.13
2023-01-13T01:07:33.202Z,94714.59
2023-01-13T01:10:00.933Z,94715.41
2023-01-13T01:12:29.993Z,94714.50
2023-01-13T01:14:57.758Z,94711.16
2023-01-13T01:17:25.479Z,94709.53
2023-01-13T01:19:53.176Z,94711.41
2023-01-13T01:22:20.856Z,94719.78
2023-01-13T01:24:48.789Z,94707.88
2023-01-13T01:27:16.502Z,94701.63
2023-01-13T01:29:45.564Z,94695.88
2023-01-13T01:32:13.269Z,94700.22
2023-01-13T01:34:41.035Z,94700.94
2023-01-13T01:37:08.755Z,94694.91
2023-01-13T01:39:36.494Z,94694.66
2023-01-13T01:42:21.816Z,94687.63
2023-01-13T01:45:02.099Z,94680.06
2023-01-13T01:47:30.743Z,94684.19
2023-01-13T01:49:58.946Z,94679.63
2023-01-13T01:52:30.548Z,94667.25
2023-01-13T01:55:00.970Z,94658.75
2023-01-13T01:57:31.961Z,94658.53
2023-01-13T02:00:01.456Z,94657.25
2023-01-13T02:02:29.543Z,94662.06
2023-01-13T02:04:57.323Z,94660.78
2023-01-13T02:07:28.445Z,94663.47
2023-01-13T02:09:57.631Z,94655.59
2023-01-13T02:12:32.298Z,94657.25
2023-01-13T02:15:04.247Z,94651.81
2023-01-13T02:17:41.507Z,94643.69
2023-01-13T02:20:34.039Z,94655.34
2023-01-13T02:23:37.229Z,94653.81
2023-01-13T02:26:16.635Z,94654.16
2023-01-13T02:29:19.603Z,94653.56
2023-01-13T02:31:49.821Z,94650.84
2023-01-13T02:34:23.026Z,94647.09
2023-01-13T02:36:54.291Z,94647.09
2023-01-13T02:39:26.188Z,94641.69
2023-01-13T02:42:14.124Z,94642.84
2023-01-13T02:44:44.914Z,94639.09
2023-01-13T02:47:18.865Z,94631.75
2023-01-13T02:49:48.965Z,94628.81
2023-01-13T02:52:21.622Z,94633.19
2023-01-13T02:54:54.121Z,94628.34
2023-01-13T02:57:22.128Z,94616.22
2023-01-13T02:59:50.360Z,94614.09
2023-01-13T03:02:20.982Z,94616.56
2023-01-13T03:04:54.285Z,94602.53
2023-01-13T03:07:38.268Z,94610.66
2023-01-13T03:10:11.683Z,94614.78
2023-01-13T03:12:45.528Z,94614.53
2023-01-13T03:15:18.882Z,94608.88
2023-01-13T03:17:52.655Z,94604.75
2023-01-13T03:20:23.487Z,94606.97
2023-01-13T03:22:55.169Z,94607.56
2023-01-13T03:25:25.663Z,94606.03
2023-01-13T03:27:58.020Z,94603.88
2023-01-13T03:30:30.850Z,94608.72
2023-01-13T03:33:03.261Z,94610.59
2023-01-13T03:35:33.200Z,94611.75
2023-01-13T03:38:04.439Z,94610.22
2023-01-13T03:40:34.995Z,94615.16
2023-01-13T03:43:23.685Z,94618.13
2023-01-13T03:45:56.085Z,94616.81
2023-01-13T03:48:27.722Z,94616.09
2023-01-13T03:50:57.830Z,94602.88
2023-01-13T03:53:28.288Z,94600.72
2023-01-13T03:55:59.424Z,94587.41
2023-01-13T03:58:30.467Z,94585.53
2023-01-13T04:01:00.048Z,94595.53
2023-01-13T04:03:34.370Z,94589.06
2023-01-13T04:06:09.809Z,94591.44
2023-01-13T04:08:38.419Z,94605.47
2023-01-13T04:11:08.431Z,94599.25
2023-01-13T04:13:38.436Z,94600.88
2023-01-13T04:16:07.704Z,94600.88
2023-01-13T04:18:38.907Z,94590.03
2023-01-13T04:21:07.317Z,94592.59
2023-01-13T04:23:35.176Z,94575.25
2023-01-13T04:26:02.787Z,94587.41
2023-01-13T04:28:30.361Z,94586.59
2023-01-13T04:30:58.033Z,94582.31
2023-01-13T04:33:25.670Z,94583.97
2023-01-13T04:35:55.193Z,94581.06
2023-01-13T04:38:23.464Z,94573.00
2023-01-13T04:40:51.140Z,94574.19
2023-01-13T04:43:18.711Z,94576.28
2023-01-13T04:45:46.418Z,94565.19
2023-01-13T04:48:14.359Z,94573.09
2023-01-13T04:50:42.608Z,94569.56
2023-01-13T04:53:11.727Z,94568.75
2023-01-13T04:55:39.429Z,94563.06
2023-01-13T04:58:09.160Z,94571.78
2023-01-13T05:00:37.394Z,94570.94
2023-01-13T05:03:05.454Z,94569.09
2023-01-13T05:05:33.237Z,94567.44
2023-01-13T05:08:01.083Z,94566.63
2023-01-13T05:10:30.113Z,94565.28
2023-01-13T05:13:15.154Z,94572.38
2023-01-13T05:16:00.662Z,94563.50
2023-01-13T05:18:29.258Z,94558.88
2023-01-13T05:20:56.887Z,94565.97
2023-01-13T05:23:42.261Z,94561.13
2023-01-13T05:26:11.283Z,94562.25
2023-01-13T05:28:38.879Z,94569.34
2023-01-13T05:31:06.961Z,94562.50
2023-01-13T05:33:35.831Z,94562.25
2023-01-13T05:36:04.534Z,94562.03
2023-01-13T05:38:32.327Z,94559.88
2023-01-13T05:41:18.061Z,94556.91
2023-01-13T05:43:47.206Z,94562.34
2023-01-13T05:46:14.949Z,94556.91
2023-01-13T05:48:44.377Z,94555.38
2023-01-13T05:51:13.616Z,94551.84
2023-01-13T05:53:41.791Z,94536.94
2023-01-13T05:56:10.546Z,94535.56
2023-01-13T05:58:38.494Z,94540.47
2023-01-13T06:01:09.052Z,94539.09
2023-01-13T06:03:37.147Z,94538.53
2023-01-13T06:06:05.174Z,94546.41
2023-01-13T06:08:33.261Z,94546.91
2023-01-13T06:11:01.064Z,94554.44
2023-01-13T06:13:28.884Z,94543.88
2023-01-13T06:15:58.231Z,94557.44
2023-01-13T06:18:28.055Z,94550.84
2023-01-13T06:20:56.241Z,94556.25
2023-01-13T06:23:24.149Z,94547.41
2023-01-13T06:25:57.113Z,94549.88
2023-01-13T06:28:24.843Z,94554.13
2023-01-13T06:30:55.638Z,94550.34
2023-01-13T06:33:28.142Z,94545.97
2023-01-13T06:35:58.489Z,94563.09
2023-01-13T06:38:27.372Z,94550.50
2023-01-13T06:40:55.442Z,94555.13
2023-01-13T06:43:22.201Z,94553.69
2023-01-13T06:45:51.730Z,94559.47
2023-01-13T06:48:20.349Z,94559.94
2023-01-13T06:50:49.571Z,94566.94
2023-01-13T06:53:17.265Z,94566.94
2023-01-13T06:55:45.001Z,94562.25
2023-01-13T06:58:12.766Z,94562.47
2023-01-13T07:00:40.663Z,94565.91
2023-01-13T07:03:10.816Z,94566.63
2023-01-13T07:05:38.774Z,94565.69
2023-01-13T07:08:08.331Z,94566.03
2023-01-13T07:10:37.227Z,94558.97
2023-01-13T07:13:23.644Z,94557.56
2023-01-13T07:15:56.234Z,94563.47
2023-01-13T07:18:24.390Z,94567.03
2023-01-13T07:20:56.050Z,94564.31
2023-01-13T07:23:25.605Z,94569.16
2023-01-13T07:25:53.411Z,94572.13
2023-01-13T07:28:21.355Z,94569.66
2023-01-13T07:30:49.102Z,94569.66
2023-01-13T07:33:18.460Z,94579.41
2023-01-13T07:35:46.662Z,94587.56
2023-01-13T07:38:14.569Z,94580.25
2023-01-13T07:40:43.539Z,94587.06
2023-01-13T07:43:30.597Z,94571.59
2023-01-13T07:45:59.607Z,94580.69
2023-01-13T07:48:27.547Z,94576.44
2023-01-13T07:50:55.396Z,94582.31
2023-01-13T07:53:24.917Z,94582.59
2023-01-13T07:55:56.254Z,94575.50
2023-01-13T07:58:24.322Z,94575.84
2023-01-13T08:00:52.019Z,94580.19
2023-01-13T08:03:19.823Z,94574.16
2023-01-13T08:05:47.660Z,94576.44
2023-01-13T08:08:15.726Z,94577.63
2023-01-13T08:10:43.441Z,94571.09
2023-01-13T08:13:20.049Z,94579.59
2023-01-13T08:15:50.104Z,94582.03
2023-01-13T08:18:20.879Z,94594.56
2023-01-13T08:20:49.605Z,94588.06
2023-01-13T08:23:17.415Z,94602.78
2023-01-13T08:25:45.352Z,94597.44
2023-01-13T08:28:15.192Z,94596.00
2023-01-13T08:30:43.690Z,94608.25
2023-01-13T08:33:13.006Z,94602.56
2023-01-13T08:35:42.165Z,94609.19
2023-01-13T08:38:10.347Z,94619.81
2023-01-13T08:40:39.816Z,94616.56
2023-01-13T08:43:07.577Z,94625.56
2023-01-13T08:45:37.157Z,94616.94
2023-01-13T08:48:05.560Z,94615.59
2023-01-13T08:50:33.323Z,94614.53
2023-01-13T08:53:01.297Z,94622.78
2023-01-13T08:55:29.157Z,94617.66
2023-01-13T08:58:13.988Z,94623.69
2023-01-13T09:00:44.979Z,94631.34
2023-01-13T09:03:12.862Z,94631.91
2023-01-13T09:05:40.584Z,94637.44
2023-01-13T09:08:08.276Z,94642.69
2023-01-13T09:10:36.868Z,94641.41
2023-01-13T09:13:12.473Z,94644.44
2023-01-13T09:15:41.373Z,94645.59
2023-01-13T09:18:10.576Z,94653.00
2023-01-13T09:20:38.423Z,94650.28
2023-01-13T09:23:09.748Z,94646.00
2023-01-13T09:25:37.992Z,94649.06
2023-01-13T09:28:06.183Z,94662.88
2023-01-13T09:30:33.989Z,94656.72
2023-01-13T09:33:19.108Z,94653.16
2023-01-13T09:35:48.439Z,94652.41
2023-01-13T09:38:16.216Z,94652.75
2023-01-13T09:40:44.698Z,94651.75
2023-01-13T09:43:36.842Z,94641.78
2023-01-13T09:46:28.575Z,94649.25
2023-01-13T09:48:57.564Z,94652.72
2023-01-13T09:51:31.836Z,94638.09
2023-01-13T09:54:01.900Z,94643.13
2023-01-13T09:56:29.651Z,94631.84
2023-01-13T09:58:57.299Z,94634.66
2023-01-13T10:01:28.644Z,94637.97
2023-01-13T10:03:56.415Z,94645.09
2023-01-13T10:06:33.415Z,94630.81
2023-01-13T10:09:01.340Z,94620.91
2023-01-13T10:11:50.022Z,94615.44
2023-01-13T10:14:20.712Z,94609.66
2023-01-13T10:16:52.677Z,94617.53
2023-01-13T10:19:24.474Z,94614.25
2023-01-13T10:22:16.852Z,94620.84
2023-01-13T10:25:03.655Z,94619.75
2023-01-13T10:27:34.798Z,94619.84
2023-01-13T10:30:12.891Z,94618.34
2023-01-13T10:32:43.081Z,94614.06
2023-01-13T10:35:11.000Z,94615.75
2023-01-13T10:37:40.377Z,94620.72
2023-01-13T10:40:18.555Z,94613.13
2023-01-13T10:42:46.526Z,94612.63
2023-01-13T10:45:25.609Z,94609.09
2023-01-13T10:48:07.613Z,94613.69
2023-01-13T10:50:36.867Z,94598.41
2023-01-13T10:53:18.982Z,94600.50
2023-01-13T10:56:00.224Z,94593.94
2023-01-13T10:58:28.828Z,94586.22
2023-01-13T11:01:01.384Z,94590.00
2023-01-13T11:03:37.016Z,94586.22
2023-01-13T11:06:05.246Z,94584.81
2023-01-13T11:08:45.472Z,94583.00
2023-01-13T11:11:44.227Z,94587.94
2023-01-13T11:14:50.956Z,94595.22
2023-01-13T11:17:35.661Z,94581.38
2023-01-13T11:20:08.485Z,94583.69
2023-01-13T11:22:39.261Z,94572.00
2023-01-13T11:25:11.572Z,94572.41
2023-01-13T11:27:45.451Z,94573.44
2023-01-13T11:30:22.353Z,94586.44
2023-01-13T11:33:05.269Z,94571.16
2023-01-13T11:35:35.450Z,94546.66
2023-01-13T11:38:08.172Z,94582.66
2023-01-13T11:40:40.290Z,94579.81
2023-01-13T11:43:13.152Z,94574.47
2023-01-13T11:45:44.626Z,94581.63
2023-01-13T11:48:16.451Z,94582.38
2023-01-13T11:50:51.012Z,94580.47
2023-01-13T11:53:33.536Z,94590.00
2023-01-13T11:56:11.908Z,94600.25
2023-01-13T11:59:03.179Z,94601.25
2023-01-13T12:01:46.227Z,94588.16
2023-01-13T12:04:23.171Z,94599.59
2023-01-13T12:06:55.302Z,94601.94
2023-01-13T12:09:31.172Z,94601.63
2023-01-13T12:12:20.622Z,94601.63
2023-01-13T12:14:59.707Z,94619.84
2023-01-13T12:17:33.313Z,94616.00
2023-01-13T12:20:13.962Z,94608.28
2023-01-13T12:22:43.281Z,94610.84
2023-01-13T12:25:20.844Z,94621.81
2023-01-13T12:27:54.163Z,94601.78
2023-01-13T12:30:25.948Z,94619.34
2023-01-13T12:32:55.735Z,94608.22
2023-01-13T12:35:34.970Z,94607.13
2023-01-13T12:38:05.501Z,94608.22
2023-01-13T12:40:47.102Z,94604.66
2023-01-13T12:43:37.243Z,94590.84
2023-01-13T12:46:57.249Z,94597.94
2023-01-13T12:49:27.849Z,94583.47
2023-01-13T12:52:12.704Z,94611.50
2023-01-13T12:55:02.944Z,94598.56
2023-01-13T12:57:33.856Z,94604.00
2023-01-13T13:00:17.301Z,94599.06
2023-01-13T13:03:23.964Z,94599.59
2023-01-13T13:05:57.843Z,94589.22
2023-01-13T13:08:32.406Z,94587.06
2023-01-13T13:11:38.425Z,94579.22
2023-01-13T13:14:06.724Z,94596.00
2023-01-13T13:16:50.415Z,94587.38
2023-01-13T13:19:46.658Z,94596.00
2023-01-13T13:22:19.691Z,94608.13
2023-01-13T13:25:20.988Z,94614.28
2023-01-13T13:27:54.221Z,94626.88
2023-01-13T13:30:25.800Z,94622.06
2023-01-13T13:33:04.007Z,94636.25
2023-01-13T13:35:52.294Z,94626.19
2023-01-13T13:38:45.953Z,94633.78
2023-01-13T13:41:33.096Z,94640.31
2023-01-13T13:44:19.685Z,94635.13
2023-01-13T13:46:48.714Z,94638.25
2023-01-13T13:49:19.217Z,94630.34
2023-01-13T13:51:50.296Z,94642.97
2023-01-13T13:54:19.820Z,94648.91
2023-01-13T13:56:48.728Z,94656.97
2023-01-13T13:59:19.668Z,94653.41
2023-01-13T14:01:53.512Z,94657.03
2023-01-13T14:04:25.718Z,94679.09
2023-01-13T14:06:55.053Z,94682.16
2023-01-13T14:09:25.231Z,94697.09
2023-01-13T14:11:58.290Z,94721.56
2023-01-13T14:14:26.301Z,94749.22
2023-01-13T14:16:54.925Z,94756.44
2023-01-13T14:19:34.749Z,94760.00
2023-01-13T14:22:04.660Z,94731.59
2023-01-13T14:24:32.825Z,94747.31
2023-01-13T14:27:10.666Z,94748.25
2023-01-13T14:29:38.573Z,94757.81
2023-01-13T14:32:06.694Z,94751.28
2023-01-13T14:34:35.983Z,94759.31
2023-01-13T14:37:04.059Z,94770.78
2023-01-13T14:39:38.797Z,94777.41
2023-01-13T14:42:12.996Z,94775.69
2023-01-13T14:44:45.456Z,94764.13
2023-01-13T14:47:22.934Z,94771.25
2023-01-13T14:50:02.523Z,94774.06
2023-01-13T14:52:31.969Z,94778.56
2023-01-13T14:55:29.894Z,94789.09
2023-01-13T14:58:24.998Z,94775.81
2023-01-13T15:00:54.299Z,94785.31
2023-01-13T15:03:22.381Z,94797.09
2023-01-13T15:05:52.839Z,94787.72
2023-01-13T15:08:36.693Z,94790.31
2023-01-13T15:11:06.130Z,94791.09
2023-01-13T15:13:38.542Z,94805.13
2023-01-13T15:16:08.351Z,94790.00
2023-01-13T15:18:39.990Z,94798.31
2023-01-13T15:21:09.567Z,94790.28
2023-01-13T15:23:37.364Z,94795.84
2023-01-13T15:26:05.452Z,94787.88
2023-01-13T15:28:33.330Z,94798.25
2023-01-13T15:31:03.746Z,94802.44
2023-01-13T15:33:32.059Z,94805.81
2023-01-13T15:35:59.725Z,94814.16
2023-01-13T15:38:28.810Z,94817.88
2023-01-13T15:40:56.508Z,94818.31
2023-01-13T15:43:42.455Z,94817.50
2023-01-13T15:46:33.058Z,94825.06
2023-01-13T15:49:09.712Z,94830.03
2023-01-13T15:51:38.824Z,94823.84
2023-01-13T15:54:08.104Z,94825.75
2023-01-13T15:56:37.276Z,94845.91
2023-01-13T15:59:05.475Z,94850.09
2023-01-13T16:01:33.140Z,94848.81
2023-01-13T16:04:00.831Z,94857.13
2023-01-13T16:06:32.573Z,94854.28
2023-01-13T16:09:01.281Z,94857.69
2023-01-13T16:11:31.052Z,94864.69
2023-01-13T16:13:58.860Z,94874.25
2023-01-13T16:16:28.679Z,94864.66
2023-01-13T16:18:56.893Z,94867.97
2023-01-13T16:21:24.630Z,94881.91
2023-01-13T16:23:52.611Z,94869.66
2023-01-13T16:26:22.839Z,94882.13
2023-01-13T16:28:54.035Z,94882.31
2023-01-13T16:31:27.194Z,94895.16
2023-01-13T16:33:55.048Z,94886.00
2023-01-13T16:36:23.484Z,94894.88
2023-01-13T16:38:52.538Z,94894.47
2023-01-13T16:41:20.449Z,94900.03
2023-01-13T16:43:48.267Z,94897.50
2023-01-13T16:46:21.045Z,94908.69
2023-01-13T16:48:49.554Z,94924.63
2023-01-13T16:51:17.431Z,94917.53
2023-01-13T16:53:45.385Z,94913.09
2023-01-13T16:56:24.726Z,94913.28
2023-01-13T16:58:53.196Z,94920.16
2023-01-13T17:01:25.771Z,94932.81
2023-01-13T17:03:54.172Z,94935.91
2023-01-13T17:06:24.357Z,94938.16
2023-01-13T17:08:53.138Z,94952.66
2023-01-13T17:11:22.034Z,94943.06
2023-01-13T17:13:49.745Z,94939.31
2023-01-13T17:16:19.863Z,94935.38
2023-01-13T17:18:49.214Z,94938.66
2023-01-13T17:21:17.327Z,94945.28
2023-01-13T17:23:45.059Z,94939.88
2023-01-13T17:26:29.498Z,94935.91
2023-01-13T17:28:57.160Z,94938.38
2023-01-13T17:31:24.891Z,94933.41
2023-01-13T17:33:57.365Z,94945.06
2023-01-13T17:36:30.459Z,94963.53
2023-01-13T17:38:58.652Z,94961.66
2023-01-13T17:41:27.215Z,94953.72
2023-01-13T17:43:55.291Z,94957.22
2023-01-13T17:46:42.196Z,94962.41
2023-01-13T17:49:26.543Z,94966.53
2023-01-13T17:51:56.679Z,94957.97
2023-01-13T17:54:25.047Z,94965.50
2023-01-13T17:57:08.650Z,94964.41
2023-01-13T18:00:27.290Z,94979.00
2023-01-13T18:02:55.446Z,94983.41
2023-01-13T18:05:28.152Z,95000.91
2023-01-13T18:08:02.052Z,94998.28
2023-01-13T18:10:32.511Z,95000.38
2023-01-13T18:13:18.085Z,95001.28
2023-01-13T18:16:03.789Z,95005.06
2023-01-13T18:18:34.479Z,95010.97
2023-01-13T18:21:24.205Z,95008.91
2023-01-13T18:24:11.434Z,95015.78
2023-01-13T18:26:56.609Z,95025.22
2023-01-13T18:29:39.257Z,95037.28
2023-01-13T18:32:09.049Z,95045.22
2023-01-13T18:34:36.967Z,95037.97
2023-01-13T18:37:07.284Z,95044.47
2023-01-13T18:39:37.505Z,95054.47
2023-01-13T18:42:22.889Z,95052.41
2023-01-13T18:44:50.783Z,95056.75
2023-01-13T18:47:19.148Z,95069.44
2023-01-13T18:49:47.400Z,95066.34
2023-01-13T18:52:16.688Z,95064.06
2023-01-13T18:54:44.568Z,95059.06
2023-01-13T18:57:12.841Z,95071.13
2023-01-13T18:59:40.971Z,95062.19
2023-01-13T19:02:16.612Z,95071.56
2023-01-13T19:04:44.499Z,95071.34
2023-01-13T19:07:13.416Z,95067.41
2023-01-13T19:09:43.251Z,95069.28
2023-01-13T19:12:14.677Z,95071.97
2023-01-13T19:14:44.708Z,95062.00
2023-01-13T19:17:46.918Z,95061.59
2023-01-13T19:20:14.552Z,95061.00
2023-01-13T19:22:42.415Z,95063.88
2023-01-13T19:25:11.520Z,95067.00
2023-01-13T19:27:39.870Z,95074.47
2023-01-13T19:30:08.841Z,95079.66
2023-01-13T19:32:36.403Z,95075.31
2023-01-13T19:35:04.119Z,95086.09
2023-01-13T19:37:33.718Z,95089.44
2023-01-13T19:40:01.367Z,95091.06
2023-01-13T19:42:48.224Z,95091.06
2023-01-13T19:45:30.676Z,95094.38
2023-01-13T19:48:00.825Z,95106.22
2023-01-13T19:50:28.482Z,95102.47
2023-01-13T19:52:56.095Z,95115.75
2023-01-13T19:55:23.788Z,95109.34
2023-01-13T19:57:52.810Z,95112.84
2023-01-13T20:00:21.853Z,95110.38
2023-01-13T20:02:51.757Z,95114.94
2023-01-13T20:05:22.356Z,95120.94
2023-01-13T20:07:51.088Z,95136.13
2023-01-13T20:10:20.365Z,95141.31
2023-01-13T20:12:48.162Z,95142.94
2023-01-13T20:15:17.331Z,95152.09
2023-01-13T20:17:44.941Z,95161.22
2023-01-13T20:20:13.568Z,95168.06
2023-01-13T20:22:41.313Z,95163.47
2023-01-13T20:25:10.244Z,95176.34
2023-01-13T20:27:37.918Z,95190.25
2023-01-13T20:30:09.443Z,95192.94
2023-01-13T20:32:38.517Z,95212.66
2023-01-13T20:35:08.164Z,95226.72
2023-01-13T20:37:35.832Z,95214.88
2023-01-13T20:40:04.970Z,95222.97
2023-01-13T20:42:42.260Z,95227.53
2023-01-13T20:45:10.838Z,95224.00
2023-01-13T20:47:39.798Z,95219.69
2023-01-13T20:50:08.509Z,95223.81
2023-01-13T20:52:38.441Z,95218.41
2023-01-13T20:55:07.320Z,95226.72
2023-01-13T20:57:35.175Z,95234.97
2023-01-13T21:00:03.939Z,95241.09
2023-01-13T21:02:31.836Z,95260.06
2023-01-13T21:05:01.088Z,95257.97
2023-01-13T21:07:28.988Z,95250.53
2023-01-13T21:09:57.475Z,95246.44
2023-01-13T21:12:42.973Z,95257.53
2023-01-13T21:15:18.252Z,95256.91
2023-01-13T21:18:04.274Z,95254.13
2023-01-13T21:20:34.504Z,95260.75
2023-01-13T21:23:03.287Z,95265.72
2023-01-13T21:25:31.402Z,95265.88
2023-01-13T21:28:03.249Z,95270.00
2023-01-13T21:30:31.116Z,95274.28
2023-01-13T21:33:00.740Z,95257.06
2023-01-13T21:35:28.397Z,95261.16
2023-01-13T21:37:57.889Z,95266.28
2023-01-13T21:40:25.579Z,95278.53
2023-01-13T21:43:11.209Z,95268.56
2023-01-13T21:45:57.407Z,95274.91
2023-01-13T21:48:25.117Z,95281.00
2023-01-13T21:50:53.159Z,95279.47
2023-01-13T21:53:22.308Z,95278.44
2023-01-13T21:55:51.531Z,95283.00
2023-01-13T21:58:19.135Z,95286.25
2023-01-13T22:00:49.256Z,95287.88
2023-01-13T22:03:18.508Z,95288.25
2023-01-13T22:05:47.175Z,95292.91
2023-01-13T22:08:14.825Z,95294.38
2023-01-13T22:10:57.943Z,95292.63
2023-01-13T22:13:58.658Z,95292.56
2023-01-13T22:16:26.852Z,95290.06
2023-01-13T22:18:54.536Z,95285.72
2023-01-13T22:21:22.168Z,95291.84
2023-01-13T22:23:49.825Z,95296.97
2023-01-13T22:26:19.135Z,95291.78
2023-01-13T22:28:46.795Z,95285.94
2023-01-13T22:31:15.517Z,95293.38
2023-01-13T22:33:46.971Z,95287.38
2023-01-13T22:36:15.179Z,95295.63
2023-01-13T22:38:42.788Z,95303.28
2023-01-13T22:41:10.802Z,95303.50
2023-01-13T22:43:40.738Z,95310.88
2023-01-13T22:46:33.149Z,95319.53
2023-01-13T22:49:02.199Z,95313.75
2023-01-13T22:51:30.630Z,95317.03
2023-01-13T22:53:59.333Z,95314.16
2023-01-13T22:56:34.197Z,95314.63
2023-01-13T22:59:04.930Z,95323.88
2023-01-13T23:01:33.906Z,95320.38
2023-01-13T23:04:01.766Z,95319.63
2023-01-13T23:06:30.902Z,95332.84
2023-01-13T23:08:58.615Z,95326.66
2023-01-13T23:11:27.512Z,95341.78
2023-01-13T23:13:58.669Z,95337.41
2023-01-13T23:16:28.969Z,95333.88
2023-01-13T23:18:56.860Z,95335.75
2023-01-13T23:21:27.250Z,95335.53
2023-01-13T23:23:55.578Z,95339.06
2023-01-13T23:26:23.983Z,95347.78
2023-01-13T23:28:51.861Z,95343.22
2023-01-13T23:31:21.042Z,95329.59
2023-01-13T23:33:50.098Z,95324.69
2023-01-13T23:36:19.901Z,95325.97
2023-01-13T23:38:48.839Z,95319.00
2023-01-13T23:41:17.748Z,95323.63
2023-01-13T23:43:45.479Z,95315.56
2023-01-13T23:46:16.515Z,95310.00
2023-01-13T23:48:44.314Z,95310.81
2023-01-13T23:51:14.419Z,95306.50
2023-01-13T23:53:44.889Z,95307.50
2023-01-13T23:56:14.710Z,95303.81
2023-01-13T23:58:42.741Z,95321.78
